Flight Track Log - Related Links

Times and Time Zones

All times are in EDT time to prevent confusion due to time zone crossing. See the UAL1082 flight status page for this flight to view local times or setup timezone preferences in your user account.

Time Position Orientation Groundspeed Altitude Reporting Facility
EDT Latitude Longitude Course Direction KTS MPH feet Rate Location/Type
Mon 06:22:14 PM 40.6050 -74.2181 215° Southwest 196 226 3,200  Level New York Center
Mon 06:23:14 PM 40.5514 -74.2672 215° Southwest 240 276 5,300 1,400 Climbing New York Center
Mon 06:24:14 PM 40.4772 -74.2417 165° South 241 277 6,000 347 Climbing New York Center
Mon 06:25:15 PM 40.3950 -74.2019 160° South 266 306 6,000 1,261 Level New York Center
Mon 06:26:13 PM 40.3294 -74.1689 159° South 280 322 8,500 2,269 Climbing New York Center
Mon 06:27:14 PM 40.2378 -74.1642 178° South 293 337 10,500 1,900 Climbing New York Center
Mon 06:28:13 PM 40.1447 -74.1353 167° South 323 372 12,300 2,168 Climbing New York Center
Mon 06:29:13 PM 40.1089 -74.0086 110° East 335 386 14,800 2,150 Climbing New York Center
Mon 06:30:13 PM 40.0831 -73.8828 105° East 363 418 16,600 1,966 Climbing New York Center
Mon 06:31:12 PM 40.0433 -73.7289 109° East 401 461 18,700 1,869 Climbing New York Center
Mon 06:32:15 PM 40.0008 -73.5889 112° Southeast 407 468 20,400 1,623 Climbing New York Center
Mon 06:33:14 PM 39.9089 -73.5122 147° Southeast 412 474 22,000 1,311 Climbing New York Center
Mon 06:34:14 PM 39.7961 -73.4267 150° Southeast 417 480 23,000 504 Climbing New York Center
Mon 06:35:13 PM 39.6875 -73.3444 150° Southeast 430 495 23,000 454 Level New York Center
Mon 06:36:13 PM 39.5808 -73.2678 151° Southeast 442 509 23,900 1,200 Climbing New York Center
Mon 06:37:13 PM 39.4722 -73.1858 150° Southeast 447 514 25,400 1,388 Climbing New York Center
Mon 06:38:14 PM 39.3611 -73.1094 152° Southeast 452 520 26,700 1,300 Climbing New York Center
Mon 06:39:13 PM 39.2503 -73.0228 149° Southeast 462 532 28,000 1,250 Climbing New York Center
Mon 06:40:14 PM 39.1350 -72.9414 151° Southeast 462 532 29,200 1,339 Climbing New York Center
Mon 06:41:14 PM 39.0197 -72.8603 151° Southeast 468 539 30,700 908 Climbing New York Center
Mon 06:42:13 PM 38.9044 -72.7689 148° Southeast 468 539 31,000 149 Climbing New York Center
Mon 06:43:15 PM 38.7892 -72.6883 151° Southeast 468 539 31,000 202 Level New York Center
Mon 06:44:12 PM 38.6736 -72.6056 151° Southeast 473 544 31,400 908 Climbing New York Center
Mon 06:45:14 PM 38.5561 -72.5253 152° Southeast 473 544 32,800 793 Climbing New York Center
Mon 06:46:13 PM 38.4447 -72.4458 151° Southeast 466 536 33,000 100 Climbing New York Center
Mon 06:47:14 PM 38.3311 -72.3558 148° Southeast 471 542 33,000  Level New York Center
Mon 06:48:13 PM 38.2156 -72.2792 152° Southeast 471 542 33,000  Level New York Center
Mon 06:49:14 PM 38.1081 -72.1925 148° Southeast 466 536 33,000  Level New York Center
Mon 06:50:14 PM 37.9881 -72.1189 154° Southeast 466 536 33,000  Level New York Center
Mon 06:51:12 PM 37.8742 -72.0406 151° Southeast 471 542 33,000  Level New York Center
Mon 06:52:12 PM 37.7564 -71.9544 150° Southeast 477 549 33,000  Level New York Center
Mon 06:53:12 PM 37.6381 -71.8736 152° Southeast 477 549 33,000  Level New York Center
Mon 06:54:14 PM 37.5386 -71.8067 152° Southeast 463 533 33,000  Level New York Center
Mon 06:55:13 PM 37.4267 -71.7267 150° Southeast 456 525 33,000  Level New York Center
Mon 06:56:04 PM 37.4000 -71.7000 176° South 452 520 33,000  Level New York Oceanic (ODAPS)
Mon 06:57:14 PM 37.1861 -71.8069 176° South 424 488 33,000  Level New York Center
Mon 06:58:13 PM 37.0728 -71.8781 207° Southwest 440 506 33,000  Level New York Center
Mon 06:59:14 PM 36.9803 -71.9572 214° Southwest 428 493 33,000  Level New York Center
Mon 07:00:12 PM 36.8750 -72.0464 214° Southwest 450 518 33,000  Level New York Center
Mon 07:11:34 PM 35.6333 -71.5333 168° South 447 514 33,000  Level New York Oceanic (ODAPS)
Mon 07:12:00 PM 35.5057 -71.6076 161° South  Level FlightAware Approximate
Mon 07:13:00 PM 35.3830 -71.5573 162° South  Level FlightAware Approximate
Mon 07:14:00 PM 35.2603 -71.5071 162° South  Level FlightAware Approximate
Mon 07:15:00 PM 35.1376 -71.4571 162° South  Level FlightAware Approximate
Mon 07:16:00 PM 35.0148 -71.4072 162° South  Level FlightAware Approximate
Mon 07:17:00 PM 34.7805 -71.3117 168° South 447 514 33,000  Level FlightAware Transoceanic
Mon 07:18:00 PM 34.6586 -71.2804 168° South 447 514 33,000  Level FlightAware Transoceanic
Mon 07:19:00 PM 34.5367 -71.2492 168° South 447 514 33,000  Level FlightAware Transoceanic
Mon 07:20:00 PM 34.4148 -71.2181 168° South 447 514 33,000  Level FlightAware Transoceanic
Mon 07:21:00 PM 34.2929 -71.1871 168° South 447 514 33,000  Level FlightAware Transoceanic
Mon 07:22:00 PM 34.1710 -71.1562 168° South 447 514 33,000  Level FlightAware Transoceanic
Mon 07:23:00 PM 34.0491 -71.1253 168° South 447 514 33,000  Level FlightAware Transoceanic
Mon 07:24:00 PM 33.9272 -71.0946 168° South 447 514 33,000  Level FlightAware Transoceanic
Mon 07:25:00 PM 33.8053 -71.0639 168° South 447 514 33,000  Level FlightAware Transoceanic
Mon 07:26:00 PM 33.6833 -71.0333 169° South 447 514 33,000  Level FlightAware Transoceanic
Mon 07:27:00 PM 33.5521 -71.0016 169° South 447 514 33,000  Level FlightAware Transoceanic
Mon 07:28:00 PM 33.4208 -70.9699 169° South 447 514 33,000  Level FlightAware Transoceanic
Mon 07:29:00 PM 33.2896 -70.9383 169° South 447 514 33,000  Level FlightAware Transoceanic
Mon 07:30:00 PM 33.1583 -70.9069 169° South 447 514 33,000  Level FlightAware Transoceanic
Mon 07:31:00 PM 33.0270 -70.8755 169° South 447 514 33,000  Level FlightAware Transoceanic
Mon 07:32:00 PM 32.8958 -70.8442 169° South 447 514 33,000  Level FlightAware Transoceanic
Mon 07:33:00 PM 32.7645 -70.8130 169° South 447 514 33,000  Level FlightAware Transoceanic
Mon 07:34:00 PM 32.6332 -70.7819 169° South 447 514 33,000  Level FlightAware Transoceanic
Mon 07:35:00 PM 32.5019 -70.7509 169° South 447 514 33,000  Level FlightAware Transoceanic
Mon 07:36:00 PM 32.3706 -70.7200 169° South 447 514 33,000  Level FlightAware Transoceanic
Mon 07:37:00 PM 32.2392 -70.6892 169° South 447 514 33,000  Level FlightAware Transoceanic
Mon 07:38:00 PM 32.1079 -70.6585 169° South 447 514 33,000  Level FlightAware Transoceanic
Mon 07:39:00 PM 31.9766 -70.6278 169° South 447 514 33,000  Level FlightAware Transoceanic
Mon 07:40:00 PM 31.8452 -70.5973 169° South 447 514 33,000  Level FlightAware Transoceanic
Mon 07:41:00 PM 31.7139 -70.5668 169° South 447 514 33,000  Level FlightAware Transoceanic
Mon 07:42:00 PM 31.5825 -70.5364 169° South 447 514 33,000  Level FlightAware Transoceanic
Mon 07:43:00 PM 31.4512 -70.5061 169° South 447 514 33,000  Level FlightAware Transoceanic
Mon 07:44:00 PM 31.3198 -70.4759 169° South 447 514 33,000  Level FlightAware Transoceanic
Mon 07:45:00 PM 31.1884 -70.4457 169° South 447 514 33,000  Level FlightAware Transoceanic
Mon 07:46:00 PM 31.0570 -70.4157 169° South 447 514 33,000  Level FlightAware Transoceanic
Mon 07:47:00 PM 30.9256 -70.3857 169° South 447 514 33,000  Level FlightAware Transoceanic
Mon 07:48:00 PM 30.7942 -70.3558 169° South 447 514 33,000  Level FlightAware Transoceanic
Mon 07:49:00 PM 30.6628 -70.3260 169° South 447 514 33,000  Level FlightAware Transoceanic
Mon 07:50:00 PM 30.5314 -70.2963 169° South 447 514 33,000 39 Level FlightAware Transoceanic
Mon 07:51:00 PM 30.4265 -70.3820 215° Southwest  Level Estimated
Mon 07:52:00 PM 30.3216 -70.4675 215° Southwest  Level Estimated
Mon 07:53:00 PM 30.2165 -70.5528 215° Southwest  Level Estimated
Mon 07:54:00 PM 30.1115 -70.6379 215° Southwest  Level Estimated
Mon 07:55:00 PM 30.0063 -70.7229 215° Southwest  Level Estimated
Mon 07:56:00 PM 29.9011 -70.8077 215° Southwest  Level Estimated
Mon 07:57:00 PM 29.7959 -70.8923 215° Southwest  Level Estimated
Mon 07:58:00 PM 29.6906 -70.9767 215° Southwest  Level Estimated
Mon 07:59:00 PM 29.5853 -71.0609 215° Southwest  Level Estimated
Mon 08:00:00 PM 29.4799 -71.1450 215° Southwest  Level Estimated
Mon 08:01:00 PM 29.3744 -71.2289 215° Southwest  Level Estimated
Mon 08:02:00 PM 29.2689 -71.3126 215° Southwest  Level Estimated
Mon 08:03:00 PM 29.1633 -71.3961 215° Southwest  Level Estimated
Mon 08:04:00 PM 29.0577 -71.4795 215° Southwest  Level Estimated
Mon 08:05:00 PM 28.9521 -71.5627 215° Southwest  Level Estimated
Mon 08:06:00 PM 28.8464 -71.6457 215° Southwest  Level Estimated
Mon 08:07:00 PM 28.7406 -71.7286 214° Southwest  Level Estimated
Mon 08:08:00 PM 28.6348 -71.8113 214° Southwest  Level Estimated
Mon 08:09:00 PM 28.5289 -71.8938 214° Southwest  Level Estimated
Mon 08:10:00 PM 28.4230 -71.9762 214° Southwest  Level Estimated
Mon 08:11:00 PM 28.3171 -72.0583 214° Southwest  Level Estimated
Mon 08:11:58 PM 28.2381 -74.6189 214° Southwest 502 578 33,900  Level Miami Center
Mon 08:12:00 PM 28.2111 -72.1404 214° Southwest  Level Estimated
Mon 08:13:00 PM 28.1050 -72.2223 214° Southwest  Level Estimated
Mon 08:13:00 PM 28.1197 -74.6842 206° Southwest 471 542 33,900  Level Miami Center
Mon 08:14:00 PM 27.9989 -72.3040 214° Southwest  Level Estimated
Mon 08:14:01 PM 28.0000 -74.7472 205° Southwest 474 545 33,900  Level Miami Center
Mon 08:15:00 PM 27.8927 -72.3855 214° Southwest  Level Estimated
Mon 08:15:02 PM 27.8781 -74.8086 204° Southwest 474 545 33,900  Level Miami Center
Mon 08:16:00 PM 27.7865 -72.4669 214° Southwest  Level Estimated
Mon 08:16:04 PM 27.7836 -74.9103 224° Southwest 484 557 34,000  Level Miami Center
Mon 08:17:00 PM 27.6803 -72.5481 214° Southwest  Level Estimated
Mon 08:17:05 PM 27.7108 -75.0367 237° Southwest 483 556 34,000  Level Miami Center
Mon 08:18:06 PM 27.6403 -75.1619 238° Southwest 479 551 34,000  Level Miami Center
Mon 08:19:08 PM 27.5669 -75.2881 237° Southwest 479 551 34,000  Level Miami Center
Mon 08:20:09 PM 27.4933 -75.4139 237° Southwest 479 551 34,000 98 Level Miami Center
Mon 08:21:10 PM 27.4014 -75.5242 227° Southwest 483 556 34,200 585 Climbing Miami Center
Mon 08:22:12 PM 27.2875 -75.6042 212° Southwest 482 555 35,200 878 Climbing Miami Center
Mon 08:23:13 PM 27.1600 -75.7153 218° Southwest 482 555 36,000 393 Climbing Miami Center
Mon 08:24:14 PM 27.0533 -75.8072 218° Southwest 482 555 36,000  Level Miami Center
Mon 08:25:16 PM 26.9475 -75.8989 218° Southwest 481 554 36,000 -49 Level Miami Center
Mon 08:26:17 PM 26.8406 -75.9906 217° Southwest 482 555 35,900  Descending Miami Center
Mon 08:27:18 PM 26.7283 -76.0742 214° Southwest 482 555 36,000 49 Climbing Miami Center
Mon 08:28:20 PM 26.6136 -76.1561 213° Southwest 484 557 36,000  Level Miami Center
Mon 08:29:21 PM 26.4836 -76.2442 211° Southwest 486 559 36,000  Level Miami Center
Mon 08:30:22 PM 26.3811 -76.3136 211° Southwest 486 559 36,000  Level Miami Center
Mon 08:31:24 PM 26.2506 -76.4039 212° Southwest 492 566 36,000  Level Miami Center
Mon 08:32:25 PM 26.1344 -76.4842 212° Southwest 492 566 36,000  Level Miami Center
Mon 08:33:26 PM 26.0167 -76.5647 212° Southwest 492 566 36,000  Level Miami Center
Mon 08:34:28 PM 25.8881 -76.6519 211° Southwest 493 567 36,000  Level Miami Center
Mon 08:35:29 PM 25.7714 -76.7319 212° Southwest 492 566 36,000  Level Miami Center
Mon 08:36:31 PM 25.6547 -76.8094 211° Southwest 491 565 36,000  Level Miami Center
Mon 08:37:32 PM 25.5478 -76.9006 218° Southwest 491 565 36,000  Level Miami Center
Mon 08:38:33 PM 25.4572 -77.0125 228° Southwest 491 565 36,000  Level Miami Center
Mon 08:39:34 PM 25.3661 -77.1439 233° Southwest 490 564 36,000  Level Miami Center
Mon 08:40:36 PM 25.2711 -77.2511 226° Southwest 486 559 36,000 49 Level Miami Center
Mon 08:41:37 PM 25.1664 -77.3472 220° Southwest 490 564 36,100 393 Climbing Miami Center
Mon 08:42:38 PM 25.0561 -77.4450 219° Southwest 489 563 36,800 439 Climbing Miami Center
Mon 08:43:40 PM 24.9350 -77.5381 215° Southwest 520 598 37,000 98 Climbing Miami Center
Mon 08:44:41 PM 24.8258 -77.6264 216° Southwest 492 566 37,000  Level Miami Center
Mon 08:45:42 PM 24.7053 -77.6942 207° Southwest 489 563 37,000  Level Miami Center
Mon 08:46:44 PM 24.5608 -77.7428 197° South 490 564 37,000  Level Miami Center
Mon 08:47:45 PM 24.4306 -77.7864 197° South 489 563 37,000  Level Miami Center
Mon 08:48:46 PM 24.3003 -77.8289 197° South 488 562 37,000  Level Miami Center
Mon 08:49:48 PM 24.1708 -77.8733 197° South 487 560 37,000  Level Miami Center
Mon 08:50:49 PM 24.0411 -77.9169 197° South 486 559 37,000  Level Miami Center
Mon 08:52:00 PM 23.9012 -77.9856 204° Southwest  Level Estimated
Mon 08:59:00 PM 23.0732 -78.3891 204° Southwest  Level Estimated
Mon 09:00:00 PM 22.9548 -78.4463 204° Southwest  Level Estimated
Mon 09:01:00 PM 22.8364 -78.5034 204° Southwest  Level Estimated
Mon 09:02:00 PM 22.7180 -78.5605 204° Southwest  Level Estimated
Mon 09:03:00 PM 22.5996 -78.6174 204° Southwest  Level Estimated
Mon 09:04:00 PM 22.4811 -78.6742 204° Southwest  Level Estimated
Mon 09:05:00 PM 22.3627 -78.7310 204° Southwest  Level Estimated
Mon 09:06:00 PM 22.2442 -78.7876 204° Southwest  Level Estimated
Mon 09:07:00 PM 22.1257 -78.8441 204° Southwest  Level Estimated
Mon 09:08:00 PM 22.0071 -78.9006 204° Southwest  Level Estimated
Mon 09:09:00 PM 21.8886 -78.9569 204° Southwest  Level Estimated
Mon 09:10:00 PM 21.7700 -79.0132 204° Southwest  Level Estimated
Mon 09:11:00 PM 21.6514 -79.0694 204° Southwest  Level Estimated
Mon 09:12:00 PM 21.5328 -79.1254 204° Southwest  Level Estimated
Mon 09:13:00 PM 21.4142 -79.1814 204° Southwest  Level Estimated
Mon 09:14:00 PM 21.2955 -79.2373 204° Southwest  Level Estimated
Mon 09:15:00 PM 21.1769 -79.2931 204° Southwest  Level Estimated
Mon 09:16:00 PM 21.0582 -79.3488 204° Southwest  Level Estimated
Mon 09:17:00 PM 20.9395 -79.4044 204° Southwest  Level Estimated
Mon 09:18:00 PM 20.8207 -79.4600 204° Southwest  Level Estimated
Mon 09:19:00 PM 20.7020 -79.5154 204° Southwest  Level Estimated
Mon 09:20:00 PM 20.5833 -79.5707 204° Southwest  Level Estimated
Mon 09:21:00 PM 20.4645 -79.6260 204° Southwest  Level Estimated
Mon 09:22:00 PM 20.3457 -79.6812 204° Southwest  Level Estimated
Mon 09:23:00 PM 20.2269 -79.7363 204° Southwest  Level Estimated
Mon 09:24:00 PM 20.1081 -79.7913 204° Southwest  Level Estimated
Mon 09:25:00 PM 19.9892 -79.8463 203° Southwest  Level Estimated
Mon 09:26:00 PM 19.8704 -79.9011 203° Southwest  Level Estimated
Mon 09:27:00 PM 19.7515 -79.9559 203° Southwest  Level Estimated
Mon 09:28:00 PM 19.6326 -80.0106 203° Southwest  Level Estimated
Mon 09:29:00 PM 19.5137 -80.0652 203° Southwest  Level Estimated
Mon 09:30:00 PM 19.3948 -80.1197 203° Southwest  Level Estimated
Mon 09:31:00 PM 19.2758 -80.1742 203° Southwest  Level Estimated
Mon 09:32:00 PM 19.1569 -80.2285 203° Southwest  Level Estimated
Mon 09:33:00 PM 19.0379 -80.2828 203° Southwest  Level Estimated
Mon 09:34:00 PM 18.9189 -80.3370 203° Southwest  Level Estimated
Mon 09:35:00 PM 18.7999 -80.3912 203° Southwest  Level Estimated
Mon 09:36:00 PM 18.6809 -80.4452 203° Southwest  Level Estimated
Mon 09:37:00 PM 18.5618 -80.4992 203° Southwest  Level Estimated
Mon 09:38:00 PM 18.4428 -80.5531 203° Southwest  Level Estimated
Mon 09:39:00 PM 18.3237 -80.6069 203° Southwest  Level Estimated
Mon 09:40:00 PM 18.2047 -80.6607 203° Southwest  Level Estimated
Mon 09:41:00 PM 18.0856 -80.7144 203° Southwest  Level Estimated
Mon 09:42:00 PM 17.9664 -80.7680 203° Southwest  Level Estimated
Mon 09:43:00 PM 17.8473 -80.8215 203° Southwest  Level Estimated
Mon 09:44:00 PM 17.7282 -80.8750 203° Southwest  Level Estimated
Mon 09:45:00 PM 17.6090 -80.9284 203° Southwest  Level Estimated
Mon 09:46:00 PM 17.4898 -80.9817 203° Southwest  Level Estimated
Mon 09:47:00 PM 17.3707 -81.0350 203° Southwest  Level Estimated
Mon 09:48:00 PM 17.2515 -81.0882 203° Southwest  Level Estimated
Mon 09:49:00 PM 17.1323 -81.1413 203° Southwest  Level Estimated
Mon 09:50:00 PM 17.0130 -81.1944 203° Southwest  Level Estimated
Mon 09:51:00 PM 16.8938 -81.2473 203° Southwest  Level Estimated
Mon 09:52:00 PM 16.7745 -81.3002 203° Southwest  Level Estimated
Mon 09:53:00 PM 16.6547 -81.3534 203° Southwest  Level Estimated
Mon 09:54:00 PM 16.5348 -81.4064 203° Southwest  Level Estimated
Mon 09:55:00 PM 16.4149 -81.4594 203° Southwest  Level Estimated
Mon 09:56:00 PM 16.2950 -81.5123 203° Southwest  Level Estimated
Mon 09:57:00 PM 16.1750 -81.5652 203° Southwest  Level Estimated
Mon 09:58:00 PM 16.0551 -81.6180 203° Southwest  Level Estimated
Mon 09:59:00 PM 15.9351 -81.6707 203° Southwest  Level Estimated
Mon 10:00:00 PM 15.8152 -81.7234 203° Southwest  Level Estimated
Mon 10:01:00 PM 15.6952 -81.7760 203° Southwest  Level Estimated
Mon 10:02:00 PM 15.5752 -81.8285 203° Southwest  Level Estimated
Mon 10:03:00 PM 15.4552 -81.8810 203° Southwest  Level Estimated
Mon 10:04:00 PM 15.3352 -81.9334 203° Southwest  Level Estimated
Mon 10:05:00 PM 15.2151 -81.9858 203° Southwest  Level Estimated
Mon 10:06:00 PM 15.0951 -82.0381 203° Southwest  Level Estimated
Mon 10:07:00 PM 14.9750 -82.0903 203° Southwest  Level Estimated
Mon 10:08:00 PM 14.8550 -82.1425 203° Southwest  Level Estimated
Mon 10:09:00 PM 14.7349 -82.1946 203° Southwest  Level Estimated
Mon 10:10:00 PM 14.6148 -82.2467 203° Southwest  Level Estimated
Mon 10:11:00 PM 14.4947 -82.2987 203° Southwest  Level Estimated
Mon 10:12:00 PM 14.3746 -82.3507 203° Southwest  Level Estimated
Mon 10:13:00 PM 14.2545 -82.4026 203° Southwest  Level Estimated
Mon 10:14:00 PM 14.1343 -82.4544 203° Southwest  Level Estimated
Mon 10:15:00 PM 14.0142 -82.5062 203° Southwest  Level Estimated
Mon 10:16:00 PM 13.8940 -82.5579 203° Southwest  Level Estimated
Mon 10:17:00 PM 13.7739 -82.6096 203° Southwest  Level Estimated
Mon 10:18:00 PM 13.6537 -82.6612 203° Southwest  Level Estimated
Mon 10:19:00 PM 13.5335 -82.7128 203° Southwest  Level Estimated
Mon 10:20:00 PM 13.4133 -82.7643 203° Southwest  Level Estimated
Mon 10:21:00 PM 13.2931 -82.8158 203° Southwest  Level Estimated
Mon 10:22:00 PM 13.1729 -82.8672 203° Southwest  Level Estimated
Mon 10:23:00 PM 13.0526 -82.9186 203° Southwest  Level Estimated
Mon 10:24:00 PM 12.9324 -82.9699 203° Southwest  Level Estimated
Mon 10:25:00 PM 12.8122 -83.0212 203° Southwest  Level Estimated
Mon 10:26:00 PM 12.6919 -83.0724 203° Southwest  Level Estimated
Mon 10:27:00 PM 12.5716 -83.1236 203° Southwest  Level Estimated
Mon 10:28:00 PM 12.4513 -83.1747 203° Southwest  Level Estimated
Mon 10:29:00 PM 12.3310 -83.2258 203° Southwest  Level Estimated
Mon 10:30:00 PM 12.2107 -83.2768 203° Southwest  Level Estimated
Mon 10:31:00 PM 12.0904 -83.3278 203° Southwest  Level Estimated
Mon 10:32:00 PM 11.9701 -83.3788 202° Southwest  Level Estimated
Mon 10:33:00 PM 11.8498 -83.4296 202° Southwest  Level Estimated
Mon 10:34:00 PM 11.7295 -83.4805 202° Southwest  Level Estimated
Mon 10:35:00 PM 11.6091 -83.5313 202° Southwest  Level Estimated
Mon 10:36:00 PM 11.4888 -83.5821 202° Southwest  Level Estimated
Mon 10:37:00 PM 11.3684 -83.6328 202° Southwest  Level Estimated
Mon 10:38:00 PM 11.2480 -83.6834 202° Southwest  Level Estimated
Mon 10:39:00 PM 11.1277 -83.7341 202° Southwest  Level Estimated
Mon 10:40:00 PM 11.0073 -83.7847 202° Southwest  Level Estimated
Mon 10:41:00 PM 10.8869 -83.8352 202° Southwest  Level Estimated
Mon 10:42:00 PM 10.7665 -83.8857 202° Southwest  Level Estimated
Mon 10:43:00 PM 10.6461 -83.9362 202° Southwest  Level Estimated
Mon 10:44:00 PM 10.5256 -83.9866 202° Southwest  Level Estimated
Mon 10:45:00 PM 10.4052 -84.0370 202° Southwest  Level Estimated
Mon 10:46:00 PM 10.2848 -84.0874 202° Southwest  Level Estimated
Mon 10:47:00 PM 10.1643 -84.1377 202° Southwest  Level Estimated
Mon 10:48:00 PM 10.0439 -84.1880 202° Southwest  Level Estimated
Mon 10:49:00 PM 10.0000 -84.2167 154° Southeast  Level FlightAware Approximate
Mon 10:50:00 PM 9.9939 -84.2088 154° Southeast  Level Estimated
Mon 10:51:00 PM 9.9939 -84.2088 154° Southeast  Level Estimated
Mon 10:52:00 PM 9.9939 -84.2088 154° Southeast  Level Estimated
Mon 10:53:00 PM 9.9939 -84.2088 154° Southeast  Level Estimated
Mon 10:54:00 PM 9.9939 -84.2088 154° Southeast  Level Estimated
Mon 10:55:00 PM 9.9939 -84.2088 154° Southeast  Level Estimated
Mon 10:56:00 PM 9.9939 -84.2088 154° Southeast  Level Estimated
Mon 10:57:00 PM 9.9939 -84.2088 154° Southeast  Level Estimated
Mon 10:58:00 PM 9.9939 -84.2088 154° Southeast  Level Estimated
Mon 10:59:00 PM 9.9939 -84.2088 154° Southeast  Level Estimated
Mon 11:00:00 PM 9.9939 -84.2088 154° Southeast  Level Estimated
Mon 11:01:00 PM 9.9939 -84.2088 154° Southeast  Level Estimated
Mon 11:02:00 PM 9.9939 -84.2088 154° Southeast  Level Estimated
Mon 11:03:00 PM 9.9939 -84.2088 154° Southeast  Level Estimated

Login

Don't have an account? Register now (free) for customized features, flight alerts, and more!